Time;durP1;ratioP1;P1;durP2;ratioP2;P2;SDS_P1;SDS_P2;PMS_P1;PMS_P2;Temp;Humidity;BMP_temperature;BMP_pressure;BME280_temperature;BME280_humidity;BME280_pressure;Samples;Min_cycle;Max_cycle;Signal;HPM_P1;HPM_P2
2021/05/07 00:01:24;;;;;;;0.70;0.47;;;;;;;;;;5033074;28;20408;-80
2021/05/07 00:03:50;;;;;;;0.40;0.40;;;;;;;;;;5033545;28;20894;-79
2021/05/07 00:06:16;;;;;;;0.60;0.60;;;;;;;;;;5033618;28;20408;-81
2021/05/07 00:08:42;;;;;;;0.73;0.67;;;;;;;;;;5033477;28;20491;-79
2021/05/07 00:11:10;;;;;;;0.50;0.50;;;;;;;;;;5033541;28;20756;-79
2021/05/07 00:19:25;;;;;;;0.90;0.70;;;;;;;;;;5033253;28;20948;-80
2021/05/07 00:21:51;;;;;;;0.97;0.63;;;;;;;;;;5033368;28;20412;-82
2021/05/07 00:24:17;;;;;;;0.40;0.40;;;;;;;;;;5033632;28;20776;-81
2021/05/07 00:26:43;;;;;;;0.77;0.60;;;;;;;;;;5032068;28;20443;-80
2021/05/07 00:29:09;;;;;;;0.73;0.60;;;;;;;;;;5033158;28;20796;-82
2021/05/07 00:31:35;;;;;;;0.43;0.43;;;;;;;;;;5033404;28;20420;-80
2021/05/07 00:34:01;;;;;;;0.50;0.50;;;;;;;;;;5032930;28;20899;-82
2021/05/07 00:36:27;;;;;;;0.70;0.60;;;;;;;;;;5033004;28;20583;-75
2021/05/07 00:38:53;;;;;;;0.50;0.47;;;;;;;;;;5032832;28;20427;-80
2021/05/07 00:41:19;;;;;;;0.60;0.60;;;;;;;;;;5033313;28;20851;-82
2021/05/07 00:49:34;;;;;;;1.30;0.77;;;;;;;;;;5032960;28;20435;-78
2021/05/07 00:52:01;;;;;;;0.53;0.53;;;;;;;;;;5033013;28;20905;-82
2021/05/07 00:54:28;;;;;;;0.90;0.70;;;;;;;;;;5032565;28;20415;-79
2021/05/07 00:56:54;;;;;;;0.80;0.80;;;;;;;;;;5032733;28;20478;-79
2021/05/07 00:59:20;;;;;;;1.40;0.50;;;;;;;;;;5033132;28;20412;-81
2021/05/07 01:01:46;;;;;;;0.80;0.80;;;;;;;;;;5039030;28;20458;-78
2021/05/07 01:04:12;;;;;;;0.70;0.63;;;;;;;;;;5033408;28;20421;-78
2021/05/07 01:06:38;;;;;;;1.90;0.50;;;;;;;;;;5032988;28;20432;-81
2021/05/07 01:09:05;;;;;;;0.63;0.63;;;;;;;;;;5032524;28;20412;-80
2021/05/07 01:11:32;;;;;;;0.63;0.40;;;;;;;;;;5032947;28;20791;-79
2021/05/07 01:19:46;;;;;;;0.87;0.70;;;;;;;;;;5042618;28;20430;-76
2021/05/07 01:22:12;;;;;;;0.43;0.43;;;;;;;;;;5043255;28;20412;-78
2021/05/07 01:24:39;;;;;;;0.43;0.40;;;;;;;;;;5035217;28;20482;-79
2021/05/07 01:27:05;;;;;;;0.60;0.60;;;;;;;;;;5036766;28;20420;-80
2021/05/07 01:29:31;;;;;;;1.13;0.80;;;;;;;;;;5036312;28;20422;-80
2021/05/07 01:31:57;;;;;;;0.83;0.80;;;;;;;;;;5036418;28;20887;-80
2021/05/07 01:34:23;;;;;;;0.40;0.40;;;;;;;;;;5036090;28;20467;-79
2021/05/07 01:36:49;;;;;;;0.70;0.53;;;;;;;;;;5036081;28;20522;-77
2021/05/07 01:39:15;;;;;;;0.50;0.50;;;;;;;;;;5036674;28;20400;-81
2021/05/07 01:41:41;;;;;;;0.53;0.50;;;;;;;;;;5036224;28;20983;-78
2021/05/07 01:44:07;;;;;;;0.50;0.50;;;;;;;;;;5036186;28;20404;-77
2021/05/07 01:49:37;;;;;;;2.00;0.40;;;;;;;;;;5035992;28;20492;-77
2021/05/07 01:52:03;;;;;;;0.47;0.47;;;;;;;;;;5036197;28;20890;-79
2021/05/07 01:54:29;;;;;;;0.50;0.50;;;;;;;;;;5035943;28;20470;-79
2021/05/07 01:56:55;;;;;;;0.50;0.50;;;;;;;;;;5035988;28;20475;-77
2021/05/07 01:59:21;;;;;;;0.57;0.57;;;;;;;;;;5036022;28;20817;-80
2021/05/07 02:01:47;;;;;;;0.40;0.40;;;;;;;;;;5034580;28;20450;-79
2021/05/07 02:04:13;;;;;;;0.70;0.70;;;;;;;;;;5035770;28;20424;-76
2021/05/07 02:06:39;;;;;;;1.23;0.77;;;;;;;;;;5035843;28;20424;-76
2021/05/07 02:09:05;;;;;;;0.40;0.40;;;;;;;;;;5035846;28;20420;-79
2021/05/07 02:11:31;;;;;;;0.63;0.63;;;;;;;;;;5035808;28;20456;-78
2021/05/07 02:13:57;;;;;;;1.33;0.50;;;;;;;;;;5035757;28;20428;-76
2021/05/07 02:19:26;;;;;;;0.90;0.70;;;;;;;;;;5035381;28;20423;-78
2021/05/07 02:21:52;;;;;;;0.70;0.50;;;;;;;;;;5035483;28;20400;-79
2021/05/07 02:24:19;;;;;;;1.07;0.90;;;;;;;;;;5039852;28;20419;-76
2021/05/07 02:26:45;;;;;;;0.70;0.70;;;;;;;;;;5037535;28;20442;-78
2021/05/07 02:29:10;;;;;;;0.60;0.60;;;;;;;;;;5035603;28;20903;-78
2021/05/07 02:34:40;;;;;;;0.90;0.60;;;;;;;;;;5034951;28;20474;-79
2021/05/07 02:37:06;;;;;;;0.90;0.50;;;;;;;;;;5035024;28;20468;-82
2021/05/07 02:39:32;;;;;;;0.60;0.40;;;;;;;;;;5035226;28;20416;-80
2021/05/07 02:41:58;;;;;;;0.50;0.40;;;;;;;;;;5035067;28;20407;-80
2021/05/07 02:44:24;;;;;;;0.40;0.30;;;;;;;;;;5034999;28;20466;-79
2021/05/07 02:49:54;;;;;;;0.60;0.43;;;;;;;;;;5034521;28;20418;-78
2021/05/07 02:52:20;;;;;;;0.40;0.30;;;;;;;;;;5034889;28;20408;-79
2021/05/07 02:54:46;;;;;;;0.30;0.30;;;;;;;;;;5035124;28;20419;-80
2021/05/07 02:57:11;;;;;;;1.17;0.50;;;;;;;;;;5034800;28;20821;-83
2021/05/07 02:59:37;;;;;;;0.93;0.50;;;;;;;;;;5034691;28;20443;-78
2021/05/07 03:02:03;;;;;;;0.60;0.60;;;;;;;;;;5034193;28;20427;-77
2021/05/07 03:04:29;;;;;;;0.50;0.40;;;;;;;;;;5034379;28;20890;-77
2021/05/07 03:06:55;;;;;;;0.40;0.40;;;;;;;;;;5034617;28;20554;-78
2021/05/07 03:09:21;;;;;;;0.50;0.50;;;;;;;;;;5036828;28;20428;-78
2021/05/07 03:11:47;;;;;;;0.50;0.40;;;;;;;;;;5042299;28;20450;-74
2021/05/07 03:14:13;;;;;;;0.60;0.60;;;;;;;;;;5036573;28;20408;-78
2021/05/07 03:19:43;;;;;;;0.70;0.70;;;;;;;;;;5034313;28;20941;-79
2021/05/07 03:22:09;;;;;;;0.57;0.57;;;;;;;;;;5034687;28;20439;-77
2021/05/07 03:24:35;;;;;;;1.13;1.03;;;;;;;;;;5034533;28;20416;-79
2021/05/07 03:27:01;;;;;;;1.03;0.80;;;;;;;;;;5034438;28;20511;-77
2021/05/07 03:29:27;;;;;;;1.30;1.20;;;;;;;;;;5034145;28;20420;-78
2021/05/07 03:34:56;;;;;;;1.70;1.60;;;;;;;;;;5033423;28;20513;-78
2021/05/07 03:37:22;;;;;;;1.73;0.97;;;;;;;;;;5033482;28;20439;-78
2021/05/07 03:39:48;;;;;;;4.27;1.80;;;;;;;;;;5034041;28;20418;-78
2021/05/07 03:42:14;;;;;;;3.10;2.80;;;;;;;;;;5034004;28;20428;-78
2021/05/07 03:44:40;;;;;;;2.30;1.60;;;;;;;;;;5034123;28;20416;-79
2021/05/07 03:50:11;;;;;;;1.87;1.77;;;;;;;;;;5035840;28;20465;-78
2021/05/07 03:52:37;;;;;;;2.20;1.87;;;;;;;;;;5033701;28;20419;-80
2021/05/07 03:55:05;;;;;;;1.63;1.40;;;;;;;;;;5033385;28;21013;-81
2021/05/07 03:57:31;;;;;;;2.20;1.33;;;;;;;;;;5033850;28;20511;-82
2021/05/07 03:59:57;;;;;;;1.90;1.80;;;;;;;;;;5033748;28;20503;-77
2021/05/07 04:02:26;;;;;;;2.30;1.53;;;;;;;;;;5033930;28;20829;-81
2021/05/07 04:04:53;;;;;;;1.10;0.90;;;;;;;;;;5033518;28;20511;-78
2021/05/07 04:07:19;;;;;;;1.30;1.20;;;;;;;;;;5033611;28;20408;-78
2021/05/07 04:09:51;;;;;;;2.80;2.17;;;;;;;;;;5033482;28;20423;-81
2021/05/07 04:12:21;;;;;;;1.87;1.20;;;;;;;;;;5033492;28;20530;-81
2021/05/07 04:14:47;;;;;;;1.30;1.13;;;;;;;;;;5033317;28;20918;-80
2021/05/07 04:20:17;;;;;;;2.00;1.70;;;;;;;;;;5033114;28;20455;-81
2021/05/07 04:22:43;;;;;;;1.30;1.20;;;;;;;;;;5032156;28;20431;-79
2021/05/07 04:25:10;;;;;;;0.77;0.73;;;;;;;;;;5033405;28;20411;-83
2021/05/07 04:27:36;;;;;;;0.90;0.70;;;;;;;;;;5033513;28;20472;-82
2021/05/07 04:30:03;;;;;;;2.05;1.85;;;;;;;;;;5033103;28;20411;-81
2021/05/07 04:32:29;;;;;;;1.50;1.23;;;;;;;;;;5033403;28;20520;-80
2021/05/07 04:34:55;;;;;;;1.87;0.70;;;;;;;;;;5032790;28;20254;-78
2021/05/07 04:37:21;;;;;;;0.97;0.90;;;;;;;;;;5033199;28;20831;-77
2021/05/07 04:39:47;;;;;;;1.20;1.10;;;;;;;;;;5033147;28;20420;-76
2021/05/07 04:42:13;;;;;;;1.43;0.50;;;;;;;;;;5033201;28;20169;-81
2021/05/07 04:44:41;;;;;;;0.80;0.70;;;;;;;;;;5033293;28;20770;-82
2021/05/07 04:50:13;;;;;;;1.10;0.93;;;;;;;;;;5032781;28;20485;-82
2021/05/07 04:52:39;;;;;;;0.82;0.75;;;;;;;;;;5032964;28;20477;-80
2021/05/07 04:55:05;;;;;;;1.57;0.60;;;;;;;;;;5033294;28;20200;-77
2021/05/07 04:57:31;;;;;;;2.22;0.90;;;;;;;;;;5032995;28;20415;-76
2021/05/07 04:59:57;;;;;;;0.60;0.50;;;;;;;;;;5033994;28;20179;-76
2021/05/07 05:05:26;;;;;;;1.43;0.93;;;;;;;;;;5032899;28;20476;-78
2021/05/07 05:07:55;;;;;;;0.70;0.70;;;;;;;;;;5031705;28;20434;-76
2021/05/07 05:10:21;;;;;;;0.55;0.55;;;;;;;;;;5033037;28;20252;-75
2021/05/07 05:12:47;;;;;;;0.85;0.85;;;;;;;;;;5032863;28;20177;-76
2021/05/07 05:15:13;;;;;;;3.05;1.63;;;;;;;;;;5032559;28;20238;-75
2021/05/07 05:17:40;;;;;;;0.97;0.80;;;;;;;;;;5033139;28;20235;-77
2021/05/07 05:20:07;;;;;;;0.40;0.40;;;;;;;;;;5032600;28;20766;-74
2021/05/07 05:22:33;;;;;;;0.82;0.82;;;;;;;;;;5032675;28;20412;-76
2021/05/07 05:25:04;;;;;;;0.80;0.80;;;;;;;;;;5032605;28;20176;-76
2021/05/07 05:27:30;;;;;;;0.93;0.75;;;;;;;;;;5032569;28;20164;-74
2021/05/07 05:29:56;;;;;;;1.58;1.20;;;;;;;;;;5032428;28;20473;-76
2021/05/07 05:35:25;;;;;;;3.15;0.90;;;;;;;;;;5032228;28;20651;-76
2021/05/07 05:37:51;;;;;;;2.27;1.33;;;;;;;;;;5032697;28;20201;-76
2021/05/07 05:40:17;;;;;;;1.33;1.23;;;;;;;;;;5032523;28;20471;-77
2021/05/07 05:42:43;;;;;;;1.52;1.20;;;;;;;;;;5032346;28;20179;-75
2021/05/07 05:45:09;;;;;;;1.33;1.00;;;;;;;;;;5032211;28;20260;-75
2021/05/07 05:50:41;;;;;;;1.88;1.58;;;;;;;;;;5032252;28;20171;-76
2021/05/07 05:53:07;;;;;;;1.97;1.70;;;;;;;;;;5030625;28;20282;-77
2021/05/07 05:55:33;;;;;;;1.52;1.10;;;;;;;;;;5031872;28;20448;-76
2021/05/07 05:57:59;;;;;;;1.90;1.60;;;;;;;;;;5031969;28;20169;-75
2021/05/07 06:00:25;;;;;;;1.50;1.40;;;;;;;;;;5033384;28;20270;-79
2021/05/07 06:02:51;;;;;;;1.40;1.13;;;;;;;;;;5035247;28;20169;-80
2021/05/07 06:05:20;;;;;;;1.38;1.27;;;;;;;;;;5035187;28;20541;-79
2021/05/07 06:07:46;;;;;;;1.65;1.30;;;;;;;;;;5035275;28;20158;-79
2021/05/07 06:10:13;;;;;;;2.13;1.40;;;;;;;;;;5034888;28;20175;-79
2021/05/07 06:12:40;;;;;;;1.30;1.20;;;;;;;;;;5035148;28;20247;-79
2021/05/07 06:15:06;;;;;;;0.85;0.82;;;;;;;;;;5033912;28;20987;-75
2021/05/07 06:20:36;;;;;;;1.35;1.25;;;;;;;;;;5034613;28;20183;-75
2021/05/07 06:23:02;;;;;;;2.17;1.93;;;;;;;;;;5034734;28;20635;-75
2021/05/07 06:25:29;;;;;;;3.33;1.90;;;;;;;;;;5034827;28;20930;-76
2021/05/07 06:27:55;;;;;;;1.93;1.80;;;;;;;;;;5034604;28;20416;-76
2021/05/07 06:30:21;;;;;;;2.40;1.87;;;;;;;;;;5033824;28;20431;-84
2021/05/07 06:35:50;;;;;;;2.30;2.10;;;;;;;;;;5033462;28;20513;-82
2021/05/07 06:38:16;;;;;;;4.73;3.30;;;;;;;;;;5033716;28;20419;-83
2021/05/07 06:40:42;;;;;;;4.00;3.30;;;;;;;;;;5033860;28;20481;-83
2021/05/07 06:43:10;;;;;;;4.07;3.50;;;;;;;;;;5033692;28;20502;-83
2021/05/07 06:45:36;;;;;;;3.80;3.00;;;;;;;;;;5033564;28;20454;-82
2021/05/07 06:48:02;;;;;;;4.03;2.70;;;;;;;;;;5034296;28;20423;-83
2021/05/07 06:50:28;;;;;;;5.83;4.90;;;;;;;;;;5039153;28;20898;-83
2021/05/07 06:52:54;;;;;;;5.17;4.63;;;;;;;;;;5050841;28;20520;-81
2021/05/07 06:55:20;;;;;;;4.07;3.50;;;;;;;;;;5040605;28;20523;-82
2021/05/07 06:57:46;;;;;;;3.58;3.05;;;;;;;;;;5034259;28;20479;-83
2021/05/07 07:00:13;;;;;;;4.00;3.57;;;;;;;;;;5032302;28;20177;-84
2021/05/07 07:05:42;;;;;;;7.30;4.20;;;;;;;;;;5033213;28;20426;-83
2021/05/07 07:08:08;;;;;;;5.90;5.10;;;;;;;;;;5033524;28;20727;-83
2021/05/07 07:10:35;;;;;;;4.40;3.80;;;;;;;;;;5033172;28;20447;-81
2021/05/07 07:13:03;;;;;;;5.30;4.80;;;;;;;;;;5031987;28;20467;-82
2021/05/07 07:15:29;;;;;;;5.20;4.70;;;;;;;;;;5033242;28;20463;-82
2021/05/07 07:20:58;;;;;;;4.68;4.25;;;;;;;;;;5033265;28;20522;-83
2021/05/07 07:23:25;;;;;;;5.27;4.77;;;;;;;;;;5033205;28;20244;-81
2021/05/07 07:25:51;;;;;;;4.72;4.22;;;;;;;;;;5033366;28;20432;-83
2021/05/07 07:28:18;;;;;;;4.30;3.80;;;;;;;;;;5033254;28;20518;-83
2021/05/07 07:30:44;;;;;;;9.27;4.60;;;;;;;;;;5032962;28;20420;-83
2021/05/07 07:36:14;;;;;;;4.90;4.50;;;;;;;;;;5033024;28;20585;-84
2021/05/07 07:38:40;;;;;;;8.63;6.35;;;;;;;;;;5033264;28;20250;-82
2021/05/07 07:41:06;;;;;;;7.03;5.70;;;;;;;;;;5031437;28;20188;-84
2021/05/07 07:43:40;;;;;;;7.88;7.03;;;;;;;;;;5031604;28;20441;-85
2021/05/07 07:46:06;;;;;;;6.63;6.03;;;;;;;;;;5033190;28;20171;-83
2021/05/07 07:48:32;;;;;;;6.57;5.97;;;;;;;;;;5032968;28;20184;-82
2021/05/07 07:51:02;;;;;;;8.50;6.27;;;;;;;;;;5032212;28;20573;-82
2021/05/07 07:53:28;;;;;;;10.35;6.18;;;;;;;;;;5033509;28;20416;-82
2021/05/07 07:55:54;;;;;;;6.67;5.80;;;;;;;;;;5033249;28;20223;-83
2021/05/07 07:58:20;;;;;;;6.80;6.10;;;;;;;;;;5032714;28;20408;-82
2021/05/07 08:00:47;;;;;;;6.63;5.67;;;;;;;;;;5032163;28;20420;-83
2021/05/07 08:06:17;;;;;;;6.60;5.80;;;;;;;;;;5032651;28;20942;-84
2021/05/07 08:08:43;;;;;;;6.53;5.83;;;;;;;;;;5031178;28;20469;-85
2021/05/07 08:11:09;;;;;;;6.77;6.07;;;;;;;;;;5032328;28;20626;-83
2021/05/07 08:13:35;;;;;;;7.30;6.60;;;;;;;;;;5032086;28;20408;-83
2021/05/07 08:16:01;;;;;;;6.17;5.67;;;;;;;;;;5030888;28;20209;-84
2021/05/07 08:18:27;;;;;;;8.23;5.30;;;;;;;;;;5032405;28;20407;-82
2021/05/07 08:20:53;;;;;;;7.40;6.80;;;;;;;;;;5030891;28;20435;-85
2021/05/07 08:23:19;;;;;;;7.33;6.23;;;;;;;;;;5031900;28;20404;-83
2021/05/07 08:25:45;;;;;;;6.23;5.63;;;;;;;;;;5032040;28;20408;-83
2021/05/07 08:28:11;;;;;;;5.83;5.33;;;;;;;;;;5031988;28;20769;-84
2021/05/07 08:30:37;;;;;;;5.03;4.43;;;;;;;;;;5031885;28;20474;-83
2021/05/07 08:33:31;;;;;;;7.60;5.30;;;;;;;;;;5031255;28;20408;-84
2021/05/07 08:35:57;;;;;;;8.53;6.27;;;;;;;;;;5031379;28;20519;-85
2021/05/07 08:38:23;;;;;;;5.77;4.97;;;;;;;;;;5033631;28;20428;-80
2021/05/07 08:40:49;;;;;;;6.47;4.37;;;;;;;;;;5046061;28;20436;-85
2021/05/07 08:43:16;;;;;;;5.30;4.30;;;;;;;;;;5040342;28;20461;-84
2021/05/07 08:45:42;;;;;;;4.80;4.33;;;;;;;;;;5031970;28;20416;-87
2021/05/07 08:51:12;;;;;;;4.20;3.43;;;;;;;;;;5031924;28;20480;-87
2021/05/07 08:53:38;;;;;;;3.10;2.80;;;;;;;;;;5031667;28;20478;-83
2021/05/07 08:56:05;;;;;;;4.20;3.90;;;;;;;;;;5031833;28;20477;-84
2021/05/07 08:58:32;;;;;;;4.50;4.10;;;;;;;;;;5031165;28;20436;-85
2021/05/07 09:00:58;;;;;;;4.97;3.50;;;;;;;;;;5030337;28;20931;-85
2021/05/07 09:06:28;;;;;;;3.40;3.10;;;;;;;;;;5031121;28;20994;-83
2021/05/07 09:08:54;;;;;;;4.00;3.30;;;;;;;;;;5034365;28;20412;-85
2021/05/07 09:11:20;;;;;;;7.33;3.70;;;;;;;;;;5038723;28;20418;-87
2021/05/07 09:13:46;;;;;;;4.73;3.20;;;;;;;;;;5032947;28;20426;-83
2021/05/07 09:16:12;;;;;;;4.60;3.73;;;;;;;;;;5033811;28;20566;-87
2021/05/07 09:21:42;;;;;;;4.13;3.73;;;;;;;;;;5033403;28;20551;-82
2021/05/07 09:24:08;;;;;;;3.30;3.00;;;;;;;;;;5033135;28;20406;-84
2021/05/07 09:26:43;;;;;;;4.30;3.90;;;;;;;;;;5032825;28;20418;-83
2021/05/07 09:29:17;;;;;;;3.57;3.27;;;;;;;;;;5032568;28;20754;-85
2021/05/07 09:31:45;;;;;;;3.50;3.20;;;;;;;;;;5032668;28;20420;-85
2021/05/07 09:34:11;;;;;;;3.43;3.17;;;;;;;;;;5033900;28;20419;-84
2021/05/07 09:36:37;;;;;;;4.33;3.00;;;;;;;;;;5036625;28;20503;-85
2021/05/07 09:39:11;;;;;;;3.70;3.00;;;;;;;;;;5036350;28;20415;-85
2021/05/07 09:41:41;;;;;;;3.80;3.50;;;;;;;;;;5036350;28;20421;-85
2021/05/07 09:44:20;;;;;;;3.70;3.20;;;;;;;;;;5036973;28;20406;-84
2021/05/07 09:46:46;;;;;;;3.40;3.10;;;;;;;;;;5036430;28;20418;-84
2021/05/07 09:49:22;;;;;;;4.47;3.20;;;;;;;;;;5036100;28;20420;-84
2021/05/07 09:51:48;;;;;;;5.33;3.50;;;;;;;;;;5036295;28;20409;-85
2021/05/07 09:54:14;;;;;;;4.00;3.13;;;;;;;;;;5035070;28;20443;-85
2021/05/07 09:56:40;;;;;;;3.37;3.07;;;;;;;;;;5036534;28;20470;-85
2021/05/07 09:59:07;;;;;;;3.90;3.60;;;;;;;;;;5036047;28;20920;-85
2021/05/07 10:07:21;;;;;;;4.70;3.70;;;;;;;;;;5035995;28;20453;-84
2021/05/07 10:09:47;;;;;;;5.00;3.27;;;;;;;;;;5035906;28;20485;-84
2021/05/07 10:12:35;;;;;;;3.60;2.93;;;;;;;;;;5034821;28;20488;-86
2021/05/07 10:15:02;;;;;;;3.30;3.10;;;;;;;;;;5036087;28;20446;-85
2021/05/07 10:17:28;;;;;;;2.80;2.60;;;;;;;;;;5034698;28;20476;-84
2021/05/07 10:19:54;;;;;;;3.70;2.93;;;;;;;;;;5034299;28;20921;-86
2021/05/07 10:22:26;;;;;;;2.53;2.00;;;;;;;;;;5036054;28;20505;-85
2021/05/07 10:24:52;;;;;;;3.43;3.13;;;;;;;;;;5018863;28;20466;-85
2021/05/07 10:27:19;;;;;;;3.57;2.80;;;;;;;;;;5035294;28;20471;-86
2021/05/07 10:29:56;;;;;;;3.23;2.60;;;;;;;;;;5038584;28;20419;-87
2021/05/07 10:32:32;;;;;;;3.83;2.77;;;;;;;;;;5034551;28;20442;-85
2021/05/07 10:34:59;;;;;;;2.50;2.30;;;;;;;;;;5038079;28;20462;-85
2021/05/07 10:37:35;;;;;;;3.97;2.43;;;;;;;;;;5044850;28;20489;-84
2021/05/07 10:40:01;;;;;;;2.50;2.30;;;;;;;;;;5045281;28;20492;-85
2021/05/07 10:42:27;;;;;;;2.73;2.53;;;;;;;;;;5033367;28;20467;-87
2021/05/07 10:44:53;;;;;;;2.53;2.30;;;;;;;;;;5033521;28;20767;-86
2021/05/07 10:47:19;;;;;;;3.13;2.83;;;;;;;;;;5032129;28;20481;-86
2021/05/07 10:49:46;;;;;;;3.63;3.33;;;;;;;;;;5033442;28;20411;-88
2021/05/07 10:52:13;;;;;;;3.53;2.87;;;;;;;;;;5033789;28;20760;-87
2021/05/07 10:54:47;;;;;;;2.57;2.37;;;;;;;;;;5031906;28;20423;-85
2021/05/07 10:57:23;;;;;;;4.00;2.93;;;;;;;;;;5033508;28;20548;-83
2021/05/07 10:59:53;;;;;;;3.37;2.57;;;;;;;;;;5034010;28;20537;-83
2021/05/07 11:02:19;;;;;;;3.23;2.93;;;;;;;;;;5031313;28;20479;-84
2021/05/07 11:04:47;;;;;;;2.60;2.30;;;;;;;;;;5031474;28;20411;-84
2021/05/07 11:07:13;;;;;;;3.00;2.67;;;;;;;;;;5032298;28;20422;-83
2021/05/07 11:09:39;;;;;;;3.90;3.37;;;;;;;;;;5033090;28;20415;-84
2021/05/07 11:12:09;;;;;;;3.40;3.03;;;;;;;;;;5033624;28;20835;-82
2021/05/07 11:14:38;;;;;;;3.93;3.13;;;;;;;;;;5033269;28;20421;-81
2021/05/07 11:17:04;;;;;;;4.13;2.50;;;;;;;;;;5033748;28;20559;-84
2021/05/07 11:19:31;;;;;;;3.27;2.87;;;;;;;;;;5033196;28;20445;-82
2021/05/07 11:22:08;;;;;;;4.63;3.30;;;;;;;;;;5033484;28;20425;-83
2021/05/07 11:24:35;;;;;;;2.80;2.50;;;;;;;;;;5032163;28;20443;-83
2021/05/07 11:27:12;;;;;;;3.70;2.87;;;;;;;;;;5037989;28;20472;-82
2021/05/07 11:29:38;;;;;;;3.33;3.10;;;;;;;;;;5034710;28;20422;-84
2021/05/07 11:38:11;;;;;;;2.83;2.57;;;;;;;;;;5032053;28;20413;-84
2021/05/07 11:40:38;;;;;;;3.20;2.90;;;;;;;;;;5031251;28;20512;-84
2021/05/07 11:43:10;;;;;;;3.07;2.87;;;;;;;;;;5030870;28;20435;-82
2021/05/07 11:45:36;;;;;;;3.63;2.80;;;;;;;;;;5032214;28;20509;-84
2021/05/07 11:48:09;;;;;;;2.50;2.30;;;;;;;;;;5032137;28;20501;-85
2021/05/07 11:50:36;;;;;;;3.87;2.83;;;;;;;;;;5031875;28;20426;-83
2021/05/07 11:53:02;;;;;;;3.40;2.40;;;;;;;;;;5032112;28;20495;-84
2021/05/07 11:55:30;;;;;;;2.70;2.50;;;;;;;;;;5031941;28;20490;-84
2021/05/07 11:57:59;;;;;;;4.83;2.87;;;;;;;;;;5031775;28;20424;-84
2021/05/07 12:00:25;;;;;;;2.57;2.40;;;;;;;;;;5031673;28;20809;-83
2021/05/07 12:03:00;;;;;;;2.93;2.67;;;;;;;;;;5031823;28;20416;-84
2021/05/07 12:05:33;;;;;;;2.60;2.40;;;;;;;;;;5030596;28;20470;-86
2021/05/07 12:08:00;;;;;;;3.50;3.20;;;;;;;;;;5032098;28;20447;-85
2021/05/07 12:10:28;;;;;;;2.80;2.60;;;;;;;;;;5030643;28;20451;-85
2021/05/07 12:12:55;;;;;;;3.77;2.60;;;;;;;;;;5032357;28;20439;-85
2021/05/07 12:15:22;;;;;;;3.03;2.63;;;;;;;;;;5033402;28;20499;-84
2021/05/07 12:17:49;;;;;;;5.07;2.50;;;;;;;;;;5032475;28;20499;-83
2021/05/07 12:20:17;;;;;;;2.90;2.37;;;;;;;;;;5032591;28;20404;-84
2021/05/07 12:22:43;;;;;;;3.07;2.63;;;;;;;;;;5032747;28;20558;-85
2021/05/07 12:25:14;;;;;;;4.80;2.90;;;;;;;;;;5032860;28;20435;-84
2021/05/07 12:27:41;;;;;;;3.07;2.63;;;;;;;;;;5033242;28;20423;-85
2021/05/07 12:30:15;;;;;;;2.47;2.10;;;;;;;;;;5032838;28;20777;-85
2021/05/07 12:32:52;;;;;;;1.90;1.80;;;;;;;;;;5032227;28;20416;-85
2021/05/07 12:35:18;;;;;;;2.10;1.90;;;;;;;;;;5033908;28;20482;-82
2021/05/07 12:37:45;;;;;;;2.60;2.10;;;;;;;;;;5033773;28;20408;-82
2021/05/07 12:40:11;;;;;;;2.80;2.53;;;;;;;;;;5033846;28;20404;-83
2021/05/07 12:42:37;;;;;;;2.63;2.43;;;;;;;;;;5036925;28;20454;-82
2021/05/07 12:45:04;;;;;;;2.33;2.17;;;;;;;;;;5051665;28;20408;-82
2021/05/07 12:53:19;;;;;;;2.40;2.20;;;;;;;;;;5033772;28;20462;-84
2021/05/07 12:55:45;;;;;;;2.13;1.90;;;;;;;;;;5032120;28;20468;-85
2021/05/07 12:58:12;;;;;;;2.50;2.30;;;;;;;;;;5032431;28;20491;-83
2021/05/07 13:00:40;;;;;;;3.40;2.90;;;;;;;;;;5032044;28;20519;-84
2021/05/07 13:03:06;;;;;;;5.00;2.40;;;;;;;;;;5032242;28;20412;-84
2021/05/07 13:05:32;;;;;;;2.90;2.70;;;;;;;;;;5031912;28;20430;-85
2021/05/07 13:07:58;;;;;;;3.77;2.60;;;;;;;;;;5031709;28;20940;-86
2021/05/07 13:10:24;;;;;;;3.20;2.70;;;;;;;;;;5036151;28;20419;-84
2021/05/07 13:12:50;;;;;;;2.90;2.57;;;;;;;;;;5036473;28;20418;-84
2021/05/07 13:15:18;;;;;;;2.90;2.60;;;;;;;;;;5036110;28;20440;-85
2021/05/07 13:17:44;;;;;;;3.57;3.27;;;;;;;;;;5035033;28;20454;-84
2021/05/07 13:20:11;;;;;;;3.37;2.80;;;;;;;;;;5035883;28;20854;-84
2021/05/07 13:22:37;;;;;;;2.83;2.53;;;;;;;;;;5035933;28;20412;-84
2021/05/07 13:25:03;;;;;;;4.93;2.77;;;;;;;;;;5036362;28;20415;-85
2021/05/07 13:27:29;;;;;;;3.23;2.93;;;;;;;;;;5035023;28;20791;-85
2021/05/07 13:29:55;;;;;;;3.43;2.17;;;;;;;;;;5034988;28;20424;-84
2021/05/07 13:32:21;;;;;;;2.97;2.67;;;;;;;;;;5036248;28;20422;-84
2021/05/07 13:37:50;;;;;;;2.00;1.90;;;;;;;;;;5035676;28;20460;-83
2021/05/07 13:40:21;;;;;;;13.53;5.20;;;;;;;;;;5035934;28;20410;-85
2021/05/07 13:42:47;;;;;;;5.07;2.93;;;;;;;;;;5035693;28;20444;-84
2021/05/07 13:45:14;;;;;;;2.47;2.27;;;;;;;;;;5034380;28;20427;-84
2021/05/07 13:47:40;;;;;;;3.87;2.77;;;;;;;;;;5035797;28;20418;-84
2021/05/07 13:53:09;;;;;;;2.53;2.33;;;;;;;;;;5035565;28;20469;-84
2021/05/07 13:55:35;;;;;;;2.40;2.20;;;;;;;;;;5034990;28;20465;-84
2021/05/07 13:58:02;;;;;;;3.40;2.60;;;;;;;;;;5035573;28;20427;-84
2021/05/07 14:00:28;;;;;;;3.50;2.63;;;;;;;;;;5035332;28;20478;-83
2021/05/07 14:02:54;;;;;;;3.03;2.73;;;;;;;;;;5035179;28;20416;-82
2021/05/07 14:05:22;;;;;;;2.33;2.13;;;;;;;;;;5033560;28;20446;-85
2021/05/07 14:07:49;;;;;;;4.10;2.63;;;;;;;;;;5035615;28;20818;-86
2021/05/07 14:10:15;;;;;;;3.10;2.90;;;;;;;;;;5035693;28;21033;-86
2021/05/07 14:12:41;;;;;;;3.10;2.60;;;;;;;;;;5040196;28;20882;-85
2021/05/07 14:15:07;;;;;;;2.63;2.40;;;;;;;;;;5034788;28;20493;-85
2021/05/07 14:17:33;;;;;;;3.50;2.50;;;;;;;;;;5034844;28;20424;-83
2021/05/07 14:23:06;;;;;;;4.20;2.40;;;;;;;;;;5034877;28;20415;-85
2021/05/07 14:25:33;;;;;;;3.20;2.90;;;;;;;;;;5033658;28;20453;-84
2021/05/07 14:27:59;;;;;;;3.40;2.43;;;;;;;;;;5034772;28;20410;-84
2021/05/07 14:30:25;;;;;;;2.20;2.00;;;;;;;;;;5034713;28;20422;-85
2021/05/07 14:32:51;;;;;;;2.00;1.83;;;;;;;;;;5033341;28;20808;-84
2021/05/07 14:38:20;;;;;;;3.23;1.53;;;;;;;;;;5034561;28;20415;-85
2021/05/07 14:40:46;;;;;;;3.87;1.80;;;;;;;;;;5034641;28;20497;-84
2021/05/07 14:43:12;;;;;;;1.63;1.17;;;;;;;;;;5034495;28;20864;-85
2021/05/07 14:45:39;;;;;;;2.40;1.30;;;;;;;;;;5034424;28;20421;-84
2021/05/07 14:48:05;;;;;;;1.57;1.47;;;;;;;;;;5033751;28;20911;-85
2021/05/07 14:50:31;;;;;;;1.77;1.67;;;;;;;;;;5035884;28;20511;-85
2021/05/07 14:52:57;;;;;;;3.00;1.33;;;;;;;;;;5053892;28;20419;-84
2021/05/07 14:55:23;;;;;;;1.57;1.47;;;;;;;;;;5034222;28;20420;-86
2021/05/07 14:57:49;;;;;;;1.90;1.40;;;;;;;;;;5034722;28;20913;-84
2021/05/07 15:00:16;;;;;;;2.40;0.90;;;;;;;;;;5033092;28;20812;-84
2021/05/07 15:02:42;;;;;;;1.43;1.33;;;;;;;;;;5032673;28;20491;-84
2021/05/07 15:08:12;;;;;;;2.57;1.77;;;;;;;;;;5034214;28;20451;-85
2021/05/07 15:10:38;;;;;;;1.80;1.07;;;;;;;;;;5034034;28;20428;-84
2021/05/07 15:13:04;;;;;;;2.20;1.37;;;;;;;;;;5033643;28;20442;-85
2021/05/07 15:15:30;;;;;;;4.60;1.63;;;;;;;;;;5034048;28;20873;-84
2021/05/07 15:17:56;;;;;;;2.60;1.10;;;;;;;;;;5033887;28;20503;-86
2021/05/07 15:23:25;;;;;;;1.43;1.30;;;;;;;;;;5033765;28;20889;-85
2021/05/07 15:25:52;;;;;;;1.63;1.30;;;;;;;;;;5033797;28;20408;-84
2021/05/07 15:28:18;;;;;;;2.13;1.50;;;;;;;;;;5033708;28;20474;-85
2021/05/07 15:30:44;;;;;;;1.70;1.60;;;;;;;;;;5033646;28;20420;-85
2021/05/07 15:33:10;;;;;;;1.50;1.40;;;;;;;;;;5035593;28;20875;-85
2021/05/07 15:38:40;;;;;;;1.10;1.00;;;;;;;;;;5033956;28;20423;-86
2021/05/07 15:41:06;;;;;;;1.63;1.50;;;;;;;;;;5033980;28;20416;-85
2021/05/07 15:43:32;;;;;;;1.53;1.30;;;;;;;;;;5034091;28;20415;-84
2021/05/07 15:45:58;;;;;;;2.80;1.60;;;;;;;;;;5034348;28;20404;-85
2021/05/07 15:48:24;;;;;;;2.87;1.53;;;;;;;;;;5032522;28;20435;-86
2021/05/07 15:50:50;;;;;;;2.00;1.23;;;;;;;;;;5033459;28;20408;-85
2021/05/07 15:53:16;;;;;;;1.77;1.30;;;;;;;;;;5033366;28;20408;-84
2021/05/07 15:55:42;;;;;;;1.33;1.17;;;;;;;;;;5033055;28;20474;-83
2021/05/07 15:58:08;;;;;;;2.00;1.40;;;;;;;;;;5033407;28;20408;-84
2021/05/07 16:00:34;;;;;;;1.23;1.13;;;;;;;;;;5034366;28;20420;-85
2021/05/07 16:03:00;;;;;;;2.60;1.50;;;;;;;;;;5034744;28;20420;-85
2021/05/07 16:08:29;;;;;;;2.20;1.20;;;;;;;;;;5033818;28;20417;-80
2021/05/07 16:10:57;;;;;;;1.80;1.63;;;;;;;;;;5032839;28;20439;-81
2021/05/07 16:13:23;;;;;;;4.37;1.40;;;;;;;;;;5032717;28;20420;-82
2021/05/07 16:15:49;;;;;;;2.97;2.33;;;;;;;;;;5037893;28;20463;-85
2021/05/07 16:18:15;;;;;;;2.03;1.53;;;;;;;;;;5034464;28;20439;-85
2021/05/07 16:23:45;;;;;;;1.47;1.37;;;;;;;;;;5036084;28;20410;-85
2021/05/07 16:26:14;;;;;;;1.60;1.37;;;;;;;;;;5036826;28;20404;-86
2021/05/07 16:28:40;;;;;;;2.83;1.70;;;;;;;;;;5035223;28;20761;-85
2021/05/07 16:31:06;;;;;;;1.97;1.70;;;;;;;;;;5034521;28;20807;-87
2021/05/07 16:33:32;;;;;;;1.70;1.53;;;;;;;;;;5035114;28;20483;-81
2021/05/07 16:35:59;;;;;;;1.83;1.70;;;;;;;;;;5039281;28;20482;-78
2021/05/07 16:38:48;;;;;;;1.73;1.50;;;;;;;;;;5036842;28;20412;-80
2021/05/07 16:41:14;;;;;;;1.23;1.10;;;;;;;;;;5039199;28;20463;-76
2021/05/07 16:43:41;;;;;;;1.90;1.10;;;;;;;;;;5038961;28;20466;-76
2021/05/07 16:46:07;;;;;;;1.57;1.47;;;;;;;;;;5038081;28;20800;-80
2021/05/07 16:48:34;;;;;;;2.53;1.60;;;;;;;;;;5037744;28;20414;-75